Station Historical Data
Daily Summary for August 8, 2017 Units:  Metric    English   Both
« Previous Day
Next Day »
Daily Weekly Monthly Yearly Custom
  High: Low: Average:
Temperature: 25.5 °C 20.2 °C 22.1 °C
Dew Point: 22.2 °C 19.1 °C 20.5 °C
Humidity: 94% 80% 91%
Wind Speed: 0km/h 0km/h 0km/h
Wind Gust: 3.2km/h - -
Wind- -
Pressure: 1018.2 hPa 1015.1 hPa -
Precipitation: 10.92 mm    
Historical Graphs
 
 
Tabular Data for August 8, 2017
Time Temperature Dew Point Pressure Wind Wind Speed Wind Gust Humidity Rainfall Rate (Hourly) Conditions
00:00 22.2 °C 20.7 °C 1016.8 hPa Calm   3.2 km/h 91% 3.81 mm RA
00:10 21.9 °C 20.6 °C 1017.2 hPa Calm   1.6 km/h 92% 1.27 mm RA
00:15 21.8 °C 20.4 °C 1017.5 hPa Calm   3.2 km/h 92% 0.51 mm BKN
00:20 21.6 °C 20.3 °C 1017.2 hPa Calm   1.6 km/h 92% 0.51 mm RA
00:25 21.4 °C 20.1 °C 1017.2 hPa Calm   1.6 km/h 92% 0.25 mm RA
00:30 21.2 °C 19.9 °C 1017.2 hPa Calm     92% 0 mm BKN
00:40 20.9 °C 19.6 °C 1017.2 hPa Calm   1.6 km/h 92% 0 mm BKN
00:45 20.9 °C 19.8 °C 1016.8 hPa Calm     93% 0 mm BKN
00:50 20.9 °C 19.7 °C 1016.8 hPa Calm     93% 0 mm OVC
00:55 20.8 °C 19.4 °C 1016.8 hPa Calm     92% 0.25 mm OVC
01:00 20.6 °C 19.2 °C 1016.8 hPa Calm     92% 0 mm OVC
01:05 20.5 °C 19.3 °C 1016.5 hPa Calm     93% 0 mm OVC
01:10 20.4 °C 19.3 °C 1016.5 hPa Calm     93% 0 mm OVC
01:15 20.4 °C 19.3 °C 1016.5 hPa Calm     93% 0 mm OVC
01:20 20.3 °C 19.2 °C 1016.1 hPa Calm     93% 0 mm -RA
01:25 20.3 °C 19.1 °C 1016.1 hPa Calm     93% 0 mm -RA
01:30 20.2 °C 19.1 °C 1016.5 hPa Calm     93% 0 mm BKN
01:35 20.2 °C 19.1 °C 1016.1 hPa Calm     93% 0 mm BKN
01:40 20.2 °C 19.1 °C 1016.5 hPa Calm     93% 0 mm BKN
01:45 20.3 °C 19.1 °C 1016.5 hPa Calm     93% 0 mm BKN
01:50 20.2 °C 19.1 °C 1016.1 hPa Calm     93% 0 mm -RA
01:55 20.3 °C 19.1 °C 1016.1 hPa Calm     93% 0 mm -RA
02:00 20.3 °C 19.3 °C 1016.1 hPa Calm     94% 0.25 mm -RA
02:05 20.3 °C 19.2 °C 1016.1 hPa Calm     93% 0 mm -RA
02:10 20.3 °C 19.2 °C 1016.1 hPa Calm     93% 0 mm -RA
02:15 20.3 °C 19.3 °C 1016.1 hPa Calm     94% 0 mm -RA
02:20 20.3 °C 19.3 °C 1016.1 hPa Calm     94% 0 mm -RA
02:25 20.3 °C 19.3 °C 1015.8 hPa Calm     94% 0 mm -RA
02:30 20.3 °C 19.3 °C 1015.8 hPa Calm     94% 0 mm SCT
02:35 20.3 °C 19.3 °C 1015.8 hPa Calm     94% 0 mm SCT
02:40 20.4 °C 19.4 °C 1015.8 hPa Calm     94% 0 mm SCT
02:45 20.4 °C 19.4 °C 1015.5 hPa Calm     94% 0 mm SCT
02:55 20.4 °C 19.4 °C 1015.5 hPa Calm     94% 0 mm SCT
03:00 20.4 °C 19.4 °C 1015.5 hPa Calm     94% 0 mm SCT
03:05 20.4 °C 19.4 °C 1015.8 hPa Calm     94% 0 mm SCT
03:10 20.4 °C 19.4 °C 1015.5 hPa Calm     94% 0 mm SCT
03:15 20.4 °C 19.4 °C 1015.5 hPa Calm     94% 0 mm SCT
03:20 20.4 °C 19.4 °C 1015.1 hPa Calm     94% 0 mm BKN
03:25 20.4 °C 19.4 °C 1015.1 hPa Calm     94% 0 mm BKN
03:30 20.4 °C 19.4 °C 1015.1 hPa Calm     94% 0 mm BKN
03:40 20.4 °C 19.4 °C 1015.5 hPa Calm     94% 0 mm BKN
03:50 20.4 °C 19.4 °C 1015.5 hPa Calm     94% 0 mm BKN
03:55 20.4 °C 19.4 °C 1015.5 hPa Calm     94% 0 mm BKN
04:00 20.4 °C 19.4 °C 1015.5 hPa Calm     94% 0 mm BKN
04:05 20.4 °C 19.4 °C 1015.5 hPa Calm     94% 0 mm BKN
04:10 20.4 °C 19.4 °C 1015.5 hPa Calm     94% 0 mm BKN
04:15 20.4 °C 19.4 °C 1015.5 hPa Calm     94% 0 mm BKN
04:25 20.5 °C 19.5 °C 1015.5 hPa Calm     94% 0 mm -RA
04:30 20.6 °C 19.6 °C 1015.5 hPa Calm     94% 0 mm -RA
04:35 20.6 °C 19.6 °C 1015.5 hPa Calm     94% 0 mm -RA
04:40 20.6 °C 19.6 °C 1015.5 hPa Calm     94% 0.25 mm -RA
04:45 20.5 °C 19.5 °C 1015.5 hPa Calm     94% 0 mm -RA
04:50 20.5 °C 19.5 °C 1015.5 hPa Calm     94% 0 mm -RA
04:55 20.5 °C 19.5 °C 1015.5 hPa Calm     94% 0 mm -RA
05:00 20.5 °C 19.5 °C 1015.5 hPa Calm     94% 0 mm -RA
05:05 20.6 °C 19.6 °C 1015.5 hPa Calm     94% 0 mm -RA
05:10 20.5 °C 19.5 °C 1015.5 hPa Calm     94% 0 mm -RA
05:15 20.5 °C 19.5 °C 1015.5 hPa Calm     94% 0 mm -RA
05:20 20.5 °C 19.5 °C 1015.5 hPa Calm     94% 0 mm CLR
05:25 20.5 °C 19.5 °C 1015.5 hPa Calm     94% 0 mm CLR
05:30 20.6 °C 19.6 °C 1015.5 hPa Calm     94% 0 mm -RA
05:35 20.6 °C 19.6 °C 1015.5 hPa Calm     94% 0 mm -RA
05:45 20.6 °C 19.6 °C 1015.5 hPa Calm     94% 0 mm -RA
05:50 20.6 °C 19.6 °C 1015.5 hPa Calm     94% 0 mm SCT
05:55 20.6 °C 19.6 °C 1015.5 hPa Calm     94% 0 mm SCT
06:00 20.6 °C 19.6 °C 1015.5 hPa Calm     94% 0 mm SCT
06:05 20.6 °C 19.6 °C 1015.5 hPa Calm     94% 0 mm SCT
06:10 20.6 °C 19.6 °C 1015.8 hPa Calm     94% 0 mm SCT
06:15 20.6 °C 19.6 °C 1015.8 hPa Calm     94% 0 mm SCT
06:20 20.6 °C 19.6 °C 1015.8 hPa Calm     94% 0 mm BKN
06:25 20.6 °C 19.6 °C 1015.8 hPa Calm     94% 0 mm BKN
06:30 20.5 °C 19.5 °C 1015.8 hPa Calm     94% 0 mm BKN
06:40 20.5 °C 19.5 °C 1015.8 hPa Calm     94% 0.25 mm RA
06:45 20.4 °C 19.4 °C 1015.8 hPa Calm     94% 0 mm BKN
06:50 20.4 °C 19.4 °C 1015.8 hPa Calm     94% 0 mm -DZ
06:55 20.5 °C 19.5 °C 1016.1 hPa Calm     94% 0 mm -DZ
07:00 20.5 °C 19.5 °C 1016.1 hPa Calm     94% 0 mm -DZ
07:05 20.5 °C 19.5 °C 1016.1 hPa Calm     94% 0 mm -DZ
07:10 20.4 °C 19.4 °C 1016.1 hPa Calm     94% 0.25 mm -DZ
07:15 20.5 °C 19.5 °C 1016.1 hPa Calm     94% 0 mm -RA
07:20 20.5 °C 19.5 °C 1016.1 hPa Calm     94% 0 mm -RA
07:25 20.5 °C 19.5 °C 1016.5 hPa Calm     94% 0.25 mm -RA
07:30 20.5 °C 19.5 °C 1016.1 hPa Calm     94% 0 mm -RA
07:35 20.6 °C 19.6 °C 1016.5 hPa Calm     94% 0.25 mm -RA
07:40 20.5 °C 19.5 °C 1016.5 hPa Calm     94% 0.25 mm -RA
07:45 20.5 °C 19.5 °C 1016.5 hPa Calm     94% 0.25 mm -RA
07:50 20.5 °C 19.5 °C 1016.5 hPa Calm     94% 0.25 mm -RA
07:55 20.5 °C 19.5 °C 1016.5 hPa Calm     94% 0.25 mm -RA
08:00 20.5 °C 19.5 °C 1016.5 hPa Calm     94% 0.51 mm -RA
08:05 20.6 °C 19.6 °C 1016.8 hPa Calm     94% 0.25 mm -RA
08:10 20.6 °C 19.6 °C 1016.8 hPa Calm     94% 0.25 mm -RA
08:15 20.6 °C 19.6 °C 1016.8 hPa Calm     94% 0.25 mm -RA
08:20 20.6 °C 19.6 °C 1017.2 hPa Calm     94% 0.51 mm -RA
08:25 20.6 °C 19.6 °C 1017.2 hPa Calm     94% 0.25 mm -RA
08:30 20.7 °C 19.7 °C 1017.2 hPa Calm     94% 0.25 mm -RA
08:35 20.7 °C 19.7 °C 1017.2 hPa Calm     94% 0.51 mm -RA
08:40 20.7 °C 19.7 °C 1017.2 hPa Calm     94% 0.25 mm -RA
08:45 20.7 °C 19.7 °C 1017.2 hPa Calm     94% 0.25 mm -RA
08:50 20.7 °C 19.7 °C 1017.5 hPa Calm     94% 0 mm -RA
08:55 20.7 °C 19.7 °C 1017.5 hPa Calm     94% 0.25 mm -RA
09:00 20.7 °C 19.7 °C 1017.5 hPa Calm     94% 0 mm -RA
09:05 20.6 °C 19.6 °C 1017.5 hPa Calm     94% 0 mm -RA
09:10 20.4 °C 19.4 °C 1017.5 hPa Calm     94% 0.25 mm -RA
09:15 20.4 °C 19.4 °C 1017.5 hPa Calm     94% 0 mm -RA
09:20 20.4 °C 19.4 °C 1017.5 hPa Calm     94% 0 mm -RA
09:25 20.3 °C 19.3 °C 1017.5 hPa Calm     94% 0 mm -RA
09:30 20.3 °C 19.3 °C 1017.5 hPa Calm     94% 0 mm -RA
09:35 20.3 °C 19.3 °C 1017.5 hPa Calm     94% 0 mm -RA
09:40 20.3 °C 19.3 °C 1017.5 hPa Calm     94% 0 mm -RA
09:45 20.4 °C 19.4 °C 1017.5 hPa Calm     94% 0 mm -RA
09:50 20.4 °C 19.4 °C 1017.5 hPa Calm     94% 0 mm -RA
09:55 20.5 °C 19.5 °C 1017.5 hPa Calm     94% 0 mm -RA
10:05 20.6 °C 19.6 °C 1017.8 hPa Calm     94% 0 mm -DZ
10:10 20.7 °C 19.7 °C 1017.8 hPa Calm     94% 0 mm -DZ
10:15 20.8 °C 19.8 °C 1017.8 hPa Calm     94% 0 mm -DZ
10:20 20.9 °C 19.9 °C 1017.8 hPa Calm     94% 0 mm -RA
10:25 20.9 °C 19.9 °C 1017.8 hPa Calm     94% 0 mm -RA
10:30 20.8 °C 19.8 °C 1017.8 hPa Calm     94% 0 mm -RA
10:35 20.9 °C 19.9 °C 1017.8 hPa Calm     94% 0 mm -RA
10:40 20.9 °C 19.9 °C 1017.8 hPa Calm     94% 0 mm -RA
10:45 20.9 °C 19.9 °C 1017.8 hPa Calm     94% 0 mm -RA
10:50 21 °C 20 °C 1017.8 hPa Calm     94% 0 mm -RA
11:00 21 °C 20 °C 1017.8 hPa Calm     94% 0 mm -RA
11:05 21.1 °C 20.1 °C 1017.8 hPa Calm     94% 0 mm OVC
11:10 20.9 °C 19.9 °C 1017.8 hPa Calm     94% 0 mm OVC
11:15 21.1 °C 20.1 °C 1017.8 hPa Calm     94% 0 mm OVC
11:20 21.2 °C 20.2 °C 1017.8 hPa Calm     94% 0 mm OVC
11:25 21.2 °C 20.2 °C 1018.2 hPa Calm     94% 0 mm OVC
11:30 21.3 °C 20.3 °C 1018.2 hPa Calm     94% 0 mm OVC
11:35 21.4 °C 20.4 °C 1018.2 hPa Calm     94% 0 mm OVC
11:40 21.3 °C 20.3 °C 1018.2 hPa Calm     94% 0 mm OVC
11:45 21.3 °C 20.3 °C 1018.2 hPa Calm     94% 0 mm OVC
11:50 21.3 °C 20.3 °C 1018.2 hPa Calm     94% 0 mm -DZ
11:55 21.3 °C 20.3 °C 1018.2 hPa Calm     94% 0 mm -DZ
12:00 21.4 °C 20.4 °C 1018.2 hPa Calm     94% 0 mm -DZ
12:05 21.4 °C 20.4 °C 1018.2 hPa Calm     94% 0 mm -DZ
12:10 21.6 °C 20.6 °C 1018.2 hPa Calm     94% 0 mm -DZ
12:15 21.7 °C 20.7 °C 1018.2 hPa Calm     94% 0 mm -DZ
12:20 21.7 °C 20.7 °C 1018.2 hPa Calm     94% 0 mm -DZ
12:25 22.1 °C 21.1 °C 1018.2 hPa Calm   1.6 km/h 94% 0 mm -DZ
12:30 22.1 °C 20.9 °C 1018.2 hPa Calm     93% 0 mm -DZ
12:35 22.2 °C 21.1 °C 1018.2 hPa Calm     93% 0 mm -DZ
12:40 22.2 °C 20.8 °C 1018.2 hPa Calm     92% 0 mm -DZ
12:45 22.3 °C 20.9 °C 1018.2 hPa Calm     92% 0 mm -DZ
12:50 22.3 °C 20.8 °C 1018.2 hPa Calm     91% 0 mm OVC
12:55 22.4 °C 20.8 °C 1017.8 hPa Calm     91% 0 mm OVC
13:00 22.4 °C 20.7 °C 1017.8 hPa Calm     90% 0 mm OVC
13:05 22.5 °C 20.9 °C 1018.2 hPa Calm     91% 0 mm OVC
13:10 22.6 °C 21 °C 1018.2 hPa Calm     91% 0 mm OVC
13:15 22.5 °C 20.8 °C 1018.2 hPa Calm     90% 0 mm OVC
13:20 22.5 °C 20.8 °C 1017.8 hPa Calm     90% 0 mm BKN
13:25 22.6 °C 21.1 °C 1017.8 hPa Calm     91% 0 mm BKN
13:30 22.6 °C 20.9 °C 1018.2 hPa Calm     90% 0 mm OVC
13:40 22.7 °C 21.2 °C 1017.8 hPa Calm     91% 0 mm OVC
13:45 22.9 °C 21.3 °C 1017.8 hPa Calm     91% 0 mm OVC
13:50 23.1 °C 21.4 °C 1017.8 hPa Calm     90% 0 mm OVC
13:55 23.3 °C 20.9 °C 1017.8 hPa Calm   1.6 km/h 87% 0 mm OVC
14:00 23.4 °C 20.9 °C 1017.5 hPa Calm   1.6 km/h 86% 0 mm OVC
14:05 23.5 °C 21.4 °C 1017.5 hPa Calm     88% 0 mm OVC
14:10 23.7 °C 21.6 °C 1017.5 hPa Calm   1.6 km/h 88% 0 mm OVC
14:15 23.7 °C 21.6 °C 1017.5 hPa Calm   1.6 km/h 88% 0 mm OVC
14:20 23.7 °C 21.6 °C 1017.5 hPa Calm   1.6 km/h 88% 0 mm OVC
14:25 23.8 °C 21.9 °C 1017.5 hPa Calm     89% 0 mm OVC
14:30 23.8 °C 21.6 °C 1017.5 hPa Calm   1.6 km/h 87% 0 mm OVC
14:35 23.9 °C 21.8 °C 1017.5 hPa Calm   1.6 km/h 88% 0 mm OVC
14:40 24 °C 21.5 °C 1017.5 hPa Calm     86% 0 mm OVC
14:45 24 °C 21.5 °C 1017.5 hPa Calm   1.6 km/h 86% 0 mm OVC
14:50 23.9 °C 21.6 °C 1017.5 hPa Calm   1.6 km/h 87% 0 mm OVC
14:55 23.8 °C 21.5 °C 1017.5 hPa Calm     87% 0 mm OVC
15:00 23.8 °C 21.5 °C 1017.2 hPa Calm     87% 0 mm OVC
15:05 23.8 °C 21.5 °C 1017.2 hPa Calm     87% 0 mm OVC
15:10 23.8 °C 21.2 °C 1017.2 hPa Calm   1.6 km/h 85% 0 mm OVC
15:15 23.9 °C 21.3 °C 1017.2 hPa Calm   1.6 km/h 85% 0 mm OVC
15:20 24.1 °C 21.6 °C 1017.2 hPa Calm   1.6 km/h 86% 0 mm OVC
15:25 24.1 °C 21.4 °C 1016.8 hPa Calm   1.6 km/h 85% 0 mm OVC
15:30 24.3 °C 21.5 °C 1016.8 hPa Calm   1.6 km/h 84% 0 mm OVC
15:35 24.6 °C 21.7 °C 1016.8 hPa Calm   1.6 km/h 84% 0 mm OVC
15:40 24.8 °C 22.1 °C 1016.8 hPa Calm   1.6 km/h 85% 0 mm OVC
15:45 24.8 °C 21.7 °C 1016.8 hPa Calm   1.6 km/h 83% 0 mm OVC
15:50 24.7 °C 22 °C 1016.8 hPa Calm     85% 0 mm OVC
15:55 24.7 °C 22 °C 1016.8 hPa Calm     85% 0 mm OVC
16:00 24.7 °C 21.6 °C 1016.5 hPa Calm   1.6 km/h 83% 0 mm OVC
16:05 24.8 °C 21.7 °C 1016.5 hPa Calm   1.6 km/h 83% 0 mm OVC
16:10 24.8 °C 21.5 °C 1016.5 hPa Calm   1.6 km/h 82% 0 mm OVC
16:15 24.8 °C 21.7 °C 1016.5 hPa Calm     83% 0 mm OVC
16:20 24.9 °C 21.8 °C 1016.5 hPa Calm     83% 0 mm SCT
16:30 25.2 °C 22.1 °C 1016.5 hPa Calm     83% 0 mm SCT
16:35 25.3 °C 22 °C 1016.5 hPa Calm     82% 0 mm SCT
16:40 25.4 °C 22.1 °C 1016.5 hPa Calm     82% 0 mm SCT
16:45 25.4 °C 21.9 °C 1016.5 hPa Calm     81% 0 mm SCT
16:50 25.4 °C 22.1 °C 1016.5 hPa Calm     82% 0 mm SCT
16:55 25.3 °C 22.1 °C 1016.1 hPa Calm     82% 0 mm SCT
17:00 25.4 °C 22.1 °C 1016.1 hPa Calm     82% 0 mm SCT
17:05 25.3 °C 22.1 °C 1016.1 hPa Calm     82% 0 mm SCT
17:10 25.3 °C 22.1 °C 1016.1 hPa Calm     82% 0 mm SCT
17:15 25.3 °C 22.1 °C 1016.1 hPa Calm     82% 0 mm SCT
17:20 25.3 °C 22.1 °C 1016.1 hPa Calm     82% 0 mm SCT
17:25 25.3 °C 22.2 °C 1016.1 hPa Calm   1.6 km/h 83% 0 mm SCT
17:30 25.3 °C 22.1 °C 1016.1 hPa Calm     82% 0 mm OVC
17:40 25.5 °C 21.8 °C 1016.1 hPa Calm   1.6 km/h 80% 0 mm OVC
17:45 25.4 °C 21.9 °C 1016.1 hPa Calm     81% 0 mm OVC
17:50 25.3 °C 22 °C 1016.1 hPa Calm     82% 0 mm OVC
17:55 25.1 °C 22 °C 1016.1 hPa Calm     83% 0 mm OVC
18:00 25 °C 21.9 °C 1016.1 hPa Calm     83% 0 mm OVC
18:05 24.9 °C 22 °C 1016.1 hPa Calm     84% 0 mm BKN
18:10 24.8 °C 21.9 °C 1016.1 hPa Calm     84% 0 mm BKN
18:15 24.7 °C 21.8 °C 1016.1 hPa Calm     84% 0 mm BKN
18:20 24.6 °C 21.9 °C 1016.1 hPa Calm     85% 0 mm SCT
18:25 24.5 °C 21.8 °C 1016.5 hPa Calm     85% 0 mm SCT
18:30 24.4 °C 21.9 °C 1016.1 hPa Calm     86% 0 mm SCT
18:35 24.4 °C 21.9 °C 1016.1 hPa Calm     86% 0 mm SCT
18:40 24.4 °C 22.1 °C 1016.1 hPa Calm     87% 0 mm SCT
18:45 24.4 °C 21.9 °C 1016.5 hPa Calm     86% 0 mm SCT
18:50 24.3 °C 21.8 °C 1016.1 hPa Calm   1.6 km/h 86% 0 mm SCT
18:55 24.3 °C 21.6 °C 1016.5 hPa Calm     85% 0 mm SCT
19:00 24.3 °C 21.6 °C 1016.1 hPa Calm     85% 0 mm SCT
19:05 24.2 °C 21.6 °C 1016.1 hPa Calm     85% 0 mm OVC
19:10 24.2 °C 21.7 °C 1016.5 hPa Calm     86% 0 mm OVC
19:15 24.2 °C 21.7 °C 1016.5 hPa Calm     86% 0 mm OVC
19:20 24.1 °C 21.6 °C 1016.5 hPa Calm     86% 0 mm OVC
19:25 24.1 °C 21.6 °C 1016.5 hPa Calm     86% 0 mm OVC
19:30 24 °C 21.5 °C 1016.5 hPa Calm     86% 0 mm OVC
19:35 23.9 °C 21.7 °C 1016.5 hPa Calm     87% 0 mm OVC
19:40 23.9 °C 21.6 °C 1016.5 hPa Calm     87% 0 mm OVC
19:45 23.8 °C 21.5 °C 1016.5 hPa Calm     87% 0 mm OVC
19:50 23.8 °C 21.5 °C 1016.5 hPa Calm     87% 0 mm OVC
19:55 23.7 °C 21.6 °C 1016.5 hPa Calm     88% 0 mm OVC
20:00 23.7 °C 21.6 °C 1016.5 hPa Calm     88% 0 mm OVC
20:05 23.6 °C 21.5 °C 1016.5 hPa Calm     88% 0 mm OVC
20:10 23.6 °C 21.5 °C 1016.5 hPa Calm     88% 0 mm OVC
20:20 23.4 °C 21.3 °C 1016.5 hPa Calm     88% 0 mm OVC
20:25 23.4 °C 21.3 °C 1016.8 hPa Calm     88% 0 mm OVC
20:30 23.3 °C 21.4 °C 1016.8 hPa Calm     89% 0 mm OVC
20:35 23.3 °C 21.4 °C 1016.8 hPa Calm     89% 0 mm OVC
20:40 23.2 °C 21.3 °C 1016.8 hPa Calm     89% 0 mm OVC
20:45 23.2 °C 21.3 °C 1016.8 hPa Calm     89% 0 mm OVC
20:50 23.1 °C 21.4 °C 1016.8 hPa Calm     90% 0 mm OVC
20:55 23.1 °C 21.3 °C 1016.8 hPa Calm     90% 0 mm OVC
21:00 22.9 °C 21.2 °C 1017.2 hPa Calm     90% 0 mm OVC
21:05 22.9 °C 21.2 °C 1017.2 hPa Calm     90% 0 mm OVC
21:10 22.8 °C 21.1 °C 1017.2 hPa Calm     90% 0 mm OVC
21:15 22.8 °C 21.2 °C 1017.5 hPa Calm     91% 0 mm OVC
21:20 22.7 °C 21.2 °C 1017.5 hPa Calm     91% 0 mm OVC
21:25 22.7 °C 21.2 °C 1017.8 hPa Calm     91% 0 mm OVC
21:30 22.7 °C 21.1 °C 1017.8 hPa Calm     91% 0 mm OVC
21:40 22.7 °C 21.1 °C 1017.8 hPa Calm     91% 0 mm OVC
21:45 22.7 °C 21.3 °C 1017.8 hPa Calm     92% 0 mm OVC
21:50 22.7 °C 21.3 °C 1017.8 hPa Calm     92% 0 mm OVC
21:55 22.6 °C 21.2 °C 1017.8 hPa Calm     92% 0 mm OVC
22:00 22.6 °C 21.2 °C 1017.8 hPa Calm     92% 0 mm OVC
22:10 22.6 °C 21.2 °C 1018.2 hPa Calm     92% 0 mm OVC
22:15 22.6 °C 21.2 °C 1017.8 hPa Calm     92% 0 mm OVC
22:20 22.6 °C 21.2 °C 1018.2 hPa Calm     92% 0 mm BKN
22:25 22.6 °C 21.2 °C 1018.2 hPa Calm     92% 0 mm BKN
22:30 22.6 °C 21.2 °C 1018.2 hPa Calm     92% 0 mm BKN
22:35 22.6 °C 21.2 °C 1018.2 hPa Calm     92% 0 mm BKN
22:40 22.6 °C 21.2 °C 1018.2 hPa Calm     92% 0 mm BKN
22:45 22.6 °C 21.2 °C 1018.2 hPa Calm     92% 0 mm BKN
22:50 22.6 °C 21.2 °C 1018.2 hPa Calm     92% 0 mm BKN
22:55 22.6 °C 21.2 °C 1018.2 hPa Calm     92% 0 mm BKN
23:00 22.6 °C 21.2 °C 1018.2 hPa Calm     92% 0 mm BKN
23:10 22.6 °C 21.2 °C 1018.2 hPa Calm     92% 0 mm BKN
23:20 22.5 °C 21.1 °C 1018.2 hPa Calm     92% 0 mm BKN
23:30 22.4 °C 21.1 °C 1018.2 hPa Calm     92% 0 mm BKN
23:40 22.4 °C 21 °C 1018.2 hPa Calm     92% 0 mm BKN
23:45 22.4 °C 21 °C 1018.2 hPa Calm     92% 0 mm BKN
23:50 22.3 °C 20.9 °C 1018.2 hPa Calm     92% 0 mm BKN
23:55 22.3 °C 20.9 °C 1018.2 hPa Calm     92% 0 mm BKN
Piedmont Bend
Compliments of Weather Underground - 2 mb